Time;durP1;ratioP1;P1;durP2;ratioP2;P2;SDS_P1;SDS_P2;PMS_P1;PMS_P2;Temp;Humidity;BMP_temperature;BMP_pressure;BME280_temperature;BME280_humidity;BME280_pressure;Samples;Min_cycle;Max_cycle;Signal;HPM_P1;HPM_P2
2023/12/11 00:01:55;;;;;;;12.82;2.60;;;;;;;7.93;100.00;98820.75;5045269;28;20042;-56
2023/12/11 00:04:23;;;;;;;13.20;2.60;;;;;;;7.89;100.00;98817.16;5042585;28;20033;-53
2023/12/11 00:06:50;;;;;;;12.57;2.80;;;;;;;7.84;100.00;98817.47;5051134;28;20056;-53
2023/12/11 00:09:18;;;;;;;11.18;2.38;;;;;;;7.82;100.00;98824.53;5047783;28;20407;-49
2023/12/11 00:11:45;;;;;;;16.55;3.80;;;;;;;7.79;100.00;98826.06;5046738;28;20403;-54
2023/12/11 00:14:13;;;;;;;7.05;2.70;;;;;;;7.77;100.00;98827.63;5047821;28;20060;-54
2023/12/11 00:16:40;;;;;;;11.65;3.85;;;;;;;7.76;100.00;98828.78;5035240;28;20411;-51
2023/12/11 00:19:07;;;;;;;13.60;3.83;;;;;;;7.74;100.00;98839.38;5047996;28;20056;-52
2023/12/11 00:21:35;;;;;;;16.30;3.03;;;;;;;7.72;100.00;98841.72;5035625;28;20049;-54
2023/12/11 00:24:03;;;;;;;23.33;5.45;;;;;;;7.69;100.00;98837.75;5048585;28;20557;-53
2023/12/11 00:26:31;;;;;;;13.68;3.28;;;;;;;7.70;100.00;98833.03;5048387;28;20056;-50
2023/12/11 00:28:58;;;;;;;15.40;3.47;;;;;;;7.67;100.00;98829.06;5044022;28;20049;-52
2023/12/11 00:31:25;;;;;;;18.15;3.85;;;;;;;7.66;100.00;98838.50;5045320;28;20049;-54
2023/12/11 00:33:53;;;;;;;17.48;3.92;;;;;;;7.66;100.00;98844.00;5030067;28;20046;-53
2023/12/11 00:36:21;;;;;;;13.38;2.88;;;;;;;7.66;100.00;98841.25;5047010;28;20052;-53
2023/12/11 00:38:48;;;;;;;29.00;5.13;;;;;;;7.66;100.00;98843.19;5047113;28;20045;-52
2023/12/11 00:41:16;;;;;;;14.27;3.85;;;;;;;7.67;100.00;98851.09;5041806;28;20049;-52
2023/12/11 00:43:44;;;;;;;22.50;6.03;;;;;;;7.69;100.00;98853.47;5045177;28;20056;-53
2023/12/11 00:46:24;;;;;;;20.00;3.45;;;;;;;7.69;100.00;98853.47;5030025;28;20041;-53
2023/12/11 00:48:51;;;;;;;17.50;4.13;;;;;;;7.68;100.00;98857.38;5048067;28;20696;-54
2023/12/11 00:51:20;;;;;;;23.95;4.35;;;;;;;7.67;100.00;98867.63;5039490;28;20076;-52
2023/12/11 00:53:48;;;;;;;13.45;3.00;;;;;;;7.68;100.00;98873.91;5045418;28;20388;-54
2023/12/11 00:56:15;;;;;;;16.25;4.47;;;;;;;7.68;100.00;98879.41;5040564;28;20048;-53
2023/12/11 00:58:43;;;;;;;24.65;3.80;;;;;;;7.68;100.00;98888.47;5048679;28;20052;-54
2023/12/11 01:01:10;;;;;;;17.58;3.08;;;;;;;7.70;100.00;98894.44;5041555;28;20573;-53
2023/12/11 01:03:38;;;;;;;16.00;4.65;;;;;;;7.72;100.00;98897.59;5050811;28;20056;-53
2023/12/11 01:06:06;;;;;;;13.65;4.38;;;;;;;7.72;100.00;98897.59;5054136;28;20052;-54
2023/12/11 01:08:38;;;;;;;18.30;3.85;;;;;;;7.70;100.00;98913.72;5030143;28;20045;-54
2023/12/11 01:11:08;;;;;;;17.92;2.95;;;;;;;7.69;100.00;98909.38;5051400;28;20063;-52
2023/12/11 01:13:37;;;;;;;16.77;3.80;;;;;;;7.67;100.00;98919.97;5050836;28;20056;-54
2023/12/11 01:16:04;;;;;;;18.88;3.47;;;;;;;7.66;100.00;98921.13;5051206;28;20521;-53
2023/12/11 01:18:32;;;;;;;12.40;3.25;;;;;;;7.66;100.00;98929.38;5032767;28;20052;-53
2023/12/11 01:20:59;;;;;;;11.27;3.90;;;;;;;7.65;100.00;98929.75;5050966;28;20406;-53
2023/12/11 01:23:27;;;;;;;13.38;3.30;;;;;;;7.66;100.00;98929.38;5032798;28;20409;-53
2023/12/11 01:25:54;;;;;;;9.65;2.35;;;;;;;7.63;100.00;98932.88;5050617;28;20048;-53
2023/12/11 01:28:22;;;;;;;16.63;3.55;;;;;;;7.63;100.00;98935.63;5031389;28;20049;-54
2023/12/11 01:30:49;;;;;;;11.85;4.28;;;;;;;7.64;100.00;98939.97;5050310;28;20045;-53
2023/12/11 01:33:16;;;;;;;11.95;2.65;;;;;;;7.65;100.00;98949.03;5027109;28;20152;-53
2023/12/11 01:35:44;;;;;;;16.73;4.20;;;;;;;7.68;100.00;98951.81;5043800;28;20391;-54
2023/12/11 01:38:12;;;;;;;12.80;2.83;;;;;;;7.73;100.00;98965.28;5050234;28;20045;-54
2023/12/11 01:40:40;;;;;;;12.50;2.55;;;;;;;7.77;100.00;98957.88;5050578;28;20388;-54
2023/12/11 01:43:14;;;;;;;7.55;2.72;;;;;;;7.82;100.00;98976.84;5046584;28;20486;-54
2023/12/11 01:46:10;;;;;;;14.88;2.50;;;;;;;7.86;100.00;98974.94;5049605;28;20485;-53
2023/12/11 01:48:38;;;;;;;13.48;2.50;;;;;;;7.91;100.00;98987.63;5040652;28;20413;-54
2023/12/11 01:51:09;;;;;;;10.23;2.05;;;;;;;7.94;100.00;98987.66;5049618;28;20045;-54
2023/12/11 01:53:36;;;;;;;13.63;2.03;;;;;;;7.98;100.00;98987.72;5049082;28;20053;-53
2023/12/11 01:56:04;;;;;;;13.18;2.33;;;;;;;7.99;100.00;98995.59;5049713;28;20056;-53
2023/12/11 01:58:31;;;;;;;9.85;2.10;;;;;;;8.03;100.00;98997.63;5049890;28;20041;-53
2023/12/11 02:00:59;;;;;;;11.60;3.63;;;;;;;8.03;100.00;99012.19;5049879;28;20530;-54
2023/12/11 02:03:28;;;;;;;10.90;2.10;;;;;;;8.05;100.00;99004.34;5048832;28;20059;-54
2023/12/11 02:05:55;;;;;;;10.38;2.67;;;;;;;8.04;100.00;99011.06;5042434;28;20040;-55
2023/12/11 02:08:23;;;;;;;10.93;2.67;;;;;;;8.05;100.00;99020.13;5043867;28;20055;-51
2023/12/11 02:10:50;;;;;;;8.27;1.80;;;;;;;8.04;100.00;99013.81;5049452;28;20040;-53
2023/12/11 02:13:18;;;;;;;7.05;1.33;;;;;;;8.06;100.00;99029.97;5041767;28;20044;-53
2023/12/11 02:15:46;;;;;;;6.93;1.52;;;;;;;8.05;100.00;99022.88;5048833;28;20041;-52
2023/12/11 02:18:16;;;;;;;3.97;1.20;;;;;;;8.07;100.00;99031.56;5049668;28;20064;-54
2023/12/11 02:20:45;;;;;;;7.18;1.27;;;;;;;8.06;100.00;99024.44;5049697;28;20048;-54
2023/12/11 02:23:23;;;;;;;9.45;2.10;;;;;;;8.04;100.00;99040.56;5049705;28;20053;-53
2023/12/11 02:26:06;;;;;;;6.43;0.82;;;;;;;8.03;100.00;99044.47;5043513;28;20063;-52
2023/12/11 02:28:33;;;;;;;4.15;1.20;;;;;;;8.01;100.00;99052.31;5044260;28;20045;-54
2023/12/11 02:31:01;;;;;;;3.88;0.98;;;;;;;8.00;100.00;99051.53;5049631;28;20045;-53
2023/12/11 02:33:28;;;;;;;3.13;1.20;;;;;;;8.02;100.00;99049.22;5049336;28;20045;-53
2023/12/11 02:35:56;;;;;;;3.42;1.30;;;;;;;8.02;100.00;99060.25;5049156;28;20422;-53
2023/12/11 02:38:24;;;;;;;4.50;1.30;;;;;;;8.04;100.00;99054.34;5049434;28;20105;-53
2023/12/11 02:40:51;;;;;;;3.33;1.10;;;;;;;8.03;100.00;99055.50;5049514;28;20041;-52
2023/12/11 02:43:18;;;;;;;4.22;1.13;;;;;;;8.02;100.00;99070.47;5049704;28;20058;-54
2023/12/11 02:45:46;;;;;;;10.18;1.83;;;;;;;8.03;100.00;99069.28;5048517;28;20422;-54
2023/12/11 02:48:14;;;;;;;9.05;1.25;;;;;;;8.03;100.00;99085.81;5048348;28;20049;-52
2023/12/11 02:50:42;;;;;;;5.38;0.90;;;;;;;8.01;100.00;99074.38;5049220;28;20045;-54
2023/12/11 02:53:09;;;;;;;4.85;1.20;;;;;;;8.00;100.00;99090.09;5049090;28;20048;-53
2023/12/11 02:55:37;;;;;;;4.43;1.52;;;;;;;7.97;100.00;99086.13;5049146;28;20058;-53
2023/12/11 02:58:04;;;;;;;6.70;1.20;;;;;;;7.95;100.00;99102.25;5045952;28;20048;-52
2023/12/11 03:03:01;;;;;;;6.30;0.93;;;;;;;7.89;100.00;99106.44;5047513;22;20051;-49
2023/12/11 03:05:28;;;;;;;5.10;1.50;;;;;;;7.86;100.00;99107.19;5068777;28;20041;-49
2023/12/11 03:07:56;;;;;;;2.60;0.63;;;;;;;7.86;100.00;99114.69;5062116;28;20044;-54
2023/12/11 03:10:23;;;;;;;3.42;0.70;;;;;;;7.86;100.00;99123.72;5061578;28;20044;-51
2023/12/11 03:12:54;;;;;;;9.07;3.17;;;;;;;7.90;100.00;99126.53;5067389;28;20040;-50
2023/12/11 03:15:21;;;;;;;4.85;1.17;;;;;;;7.91;100.00;99136.41;5059842;28;20049;-50
2023/12/11 03:17:49;;;;;;;3.95;0.95;;;;;;;7.91;100.00;99120.69;5060002;28;20045;-50
2023/12/11 03:20:16;;;;;;;4.05;0.50;;;;;;;7.91;100.00;99128.94;5065404;28;20052;-47
2023/12/11 03:22:44;;;;;;;5.93;0.82;;;;;;;7.92;100.00;99144.31;5065968;28;20048;-52
2023/12/11 03:25:12;;;;;;;4.40;0.90;;;;;;;7.90;100.00;99135.63;5037353;28;20040;-54
2023/12/11 03:27:39;;;;;;;5.20;0.82;;;;;;;7.88;100.00;99131.63;5054749;28;20056;-49
2023/12/11 03:30:07;;;;;;;2.38;0.50;;;;;;;7.84;100.00;99139.03;5053702;28;20509;-53
2023/12/11 03:32:35;;;;;;;4.40;1.40;;;;;;;7.78;100.00;99152.28;5060653;28;20048;-48
2023/12/11 03:35:03;;;;;;;0.45;0.30;;;;;;;7.74;100.00;99162.47;5067805;28;20056;-51
2023/12/11 03:37:30;;;;;;;2.13;0.70;;;;;;;7.68;100.00;99160.34;5056541;28;20167;-51
2023/12/11 03:39:58;;;;;;;2.15;0.20;;;;;;;7.63;100.00;99174.44;5055583;28;20402;-50
2023/12/11 03:42:26;;;;;;;0.52;0.30;;;;;;;7.60;100.00;99181.47;5065564;28;20048;-50
2023/12/11 03:44:54;;;;;;;0.43;0.43;;;;;;;7.59;100.00;99184.59;5067696;28;20056;-47
2023/12/11 03:47:21;;;;;;;3.17;0.40;;;;;;;7.57;100.00;99181.41;5044700;28;20055;-51
2023/12/11 03:49:49;;;;;;;1.58;0.40;;;;;;;7.53;100.00;99175.81;5049876;28;20521;-51
2023/12/11 03:52:16;;;;;;;2.38;0.40;;;;;;;7.51;100.00;99167.13;5043206;28;20526;-48
2023/12/11 03:54:44;;;;;;;0.55;0.30;;;;;;;7.51;100.00;99167.13;5056031;28;20055;-51
2023/12/11 03:57:11;;;;;;;1.20;0.22;;;;;;;7.51;100.00;99175.38;5065261;28;20412;-53
2023/12/11 03:59:38;;;;;;;1.73;0.30;;;;;;;7.50;100.00;99187.56;5065406;28;20079;-50
2023/12/11 04:02:06;;;;;;;3.35;0.50;;;;;;;7.46;100.00;99196.91;5048694;28;20049;-49
2023/12/11 04:04:33;;;;;;;6.55;0.80;;;;;;;7.43;100.00;99192.94;5066693;28;20052;-52
2023/12/11 04:07:01;;;;;;;0.75;0.35;;;;;;;7.38;100.00;99203.44;5078601;28;20054;-50
2023/12/11 04:09:28;;;;;;;4.80;0.40;;;;;;;7.37;100.00;99208.13;5067018;28;20076;-53
2023/12/11 04:11:56;;;;;;;4.82;1.75;;;;;;;7.39;100.00;99214.06;5064169;28;20371;-50
2023/12/11 04:14:23;;;;;;;1.20;0.38;;;;;;;7.44;100.00;99227.53;5048436;28;20064;-51
2023/12/11 04:16:51;;;;;;;7.03;2.75;;;;;;;7.46;100.00;99225.25;5059094;28;20051;-51
2023/12/11 04:19:18;;;;;;;2.80;0.60;;;;;;;7.47;100.00;99226.81;5059681;28;20052;-50
2023/12/11 04:21:46;;;;;;;2.22;0.50;;;;;;;7.48;100.00;99235.88;5054528;28;20755;-49
2023/12/11 04:24:13;;;;;;;4.78;0.73;;;;;;;7.51;100.00;99238.72;5062461;28;20044;-47
2023/12/11 04:26:41;;;;;;;1.83;0.50;;;;;;;7.53;100.00;99239.16;5051336;28;20057;-50
2023/12/11 04:29:09;;;;;;;1.20;0.45;;;;;;;7.56;100.00;99246.69;5056666;28;20048;-53
2023/12/11 04:31:36;;;;;;;1.13;0.70;;;;;;;7.58;100.00;99247.13;5060287;28;20064;-49
2023/12/11 04:34:03;;;;;;;2.08;0.70;;;;;;;7.60;100.00;99253.06;5055391;28;20068;-50
2023/12/11 04:36:31;;;;;;;0.98;0.40;;;;;;;7.61;100.00;99251.91;5051624;28;20052;-47
2023/12/11 04:38:58;;;;;;;3.53;1.33;;;;;;;7.62;100.00;99260.97;5051045;28;20057;-51
2023/12/11 04:41:26;;;;;;;5.78;0.70;;;;;;;7.64;100.00;99266.91;5051602;28;20049;-51
2023/12/11 04:43:53;;;;;;;2.33;0.60;;;;;;;7.66;100.00;99267.34;5055699;28;20041;-51
2023/12/11 04:46:20;;;;;;;2.80;0.60;;;;;;;7.61;100.00;99265.69;5055763;28;20060;-52
2023/12/11 04:48:48;;;;;;;3.97;0.75;;;;;;;7.58;100.00;99269.16;5054238;28;20041;-49
2023/12/11 04:51:15;;;;;;;8.02;1.50;;;;;;;7.53;100.00;99274.16;5067610;28;20060;-52
2023/12/11 04:53:43;;;;;;;8.10;1.02;;;;;;;7.48;100.00;99266.97;5063577;28;20045;-51
2023/12/11 04:56:10;;;;;;;3.40;0.77;;;;;;;7.47;100.00;99267.31;5054291;28;20048;-49
2023/12/11 04:58:38;;;;;;;7.53;0.98;;;;;;;7.43;100.00;99274.72;5060395;28;20045;-48
2023/12/11 05:01:05;;;;;;;4.40;0.60;;;;;;;7.37;100.00;99276.97;5058229;28;20091;-49
2023/12/11 05:03:33;;;;;;;4.75;0.63;;;;;;;7.33;100.00;99268.59;5065909;28;20055;-49
2023/12/11 05:06:00;;;;;;;3.08;0.43;;;;;;;7.28;100.00;99274.41;5067223;28;20403;-49
2023/12/11 05:08:28;;;;;;;1.90;0.65;;;;;;;7.23;100.00;99288.44;5065306;28;20048;-51
2023/12/11 05:10:57;;;;;;;5.70;0.93;;;;;;;7.21;100.00;99290.75;5060200;28;20414;-51
2023/12/11 05:13:24;;;;;;;4.53;0.80;;;;;;;7.19;100.00;99289.53;5051444;28;20524;-50
2023/12/11 05:15:52;;;;;;;2.28;0.57;;;;;;;7.15;100.00;99297.69;5051832;28;20037;-53
2023/12/11 05:18:19;;;;;;;5.22;0.80;;;;;;;7.12;100.00;99289.38;5050224;28;20585;-50
2023/12/11 05:20:46;;;;;;;3.13;0.50;;;;;;;7.10;100.00;99288.91;5058623;28;20056;-50
2023/12/11 05:23:14;;;;;;;11.23;1.25;;;;;;;7.07;100.00;99297.91;5057753;28;20044;-53
2023/12/11 05:25:41;;;;;;;3.97;0.50;;;;;;;7.04;100.00;99284.84;5057590;28;20057;-51
2023/12/11 05:28:08;;;;;;;3.35;0.70;;;;;;;7.02;100.00;99303.66;5050417;28;20056;-49
2023/12/11 05:30:36;;;;;;;2.05;0.82;;;;;;;7.02;100.00;99304.44;5052451;28;20049;-50
2023/12/11 05:33:03;;;;;;;8.07;0.73;;;;;;;7.02;100.00;99303.66;5054447;28;20424;-50
2023/12/11 05:35:31;;;;;;;6.15;0.50;;;;;;;7.03;100.00;99306.06;5061244;28;20423;-49
2023/12/11 05:37:58;;;;;;;2.55;0.95;;;;;;;7.05;100.00;99302.94;5061985;28;20040;-48
2023/12/11 05:40:26;;;;;;;8.73;1.00;;;;;;;7.02;100.00;99309.94;5052084;28;20049;-52
2023/12/11 05:42:55;;;;;;;8.68;0.70;;;;;;;7.03;100.00;99310.75;5068004;28;20051;-48
2023/12/11 05:45:23;;;;;;;3.78;0.55;;;;;;;7.06;100.00;99315.56;5059704;28;20410;-50
2023/12/11 05:47:50;;;;;;;2.97;0.40;;;;;;;7.09;100.00;99317.59;5061783;28;20052;-48
2023/12/11 05:50:18;;;;;;;4.68;1.85;;;;;;;7.11;100.00;99318.84;5067621;28;20848;-51
2023/12/11 05:52:45;;;;;;;4.40;0.50;;;;;;;7.15;100.00;99329.91;5061410;28;20037;-48
2023/12/11 05:55:13;;;;;;;1.55;0.45;;;;;;;7.17;100.00;99328.44;5067523;28;20044;-51
2023/12/11 05:57:40;;;;;;;1.85;0.40;;;;;;;7.20;100.00;99329.66;5045845;28;20064;-48
2023/12/11 06:00:11;;;;;;;1.40;0.40;;;;;;;7.22;100.00;99328.16;5063899;28;20053;-51
2023/12/11 06:02:39;;;;;;;3.97;0.75;;;;;;;7.25;100.00;99323.88;5067397;28;20044;-51
2023/12/11 06:05:08;;;;;;;2.50;0.93;;;;;;;7.28;100.00;99336.94;5065358;28;20055;-48
2023/12/11 06:07:36;;;;;;;1.75;0.60;;;;;;;7.30;100.00;99340.13;5052340;28;20055;-48
2023/12/11 06:10:04;;;;;;;4.88;0.70;;;;;;;7.31;100.00;99338.94;5060040;28;20044;-49
2023/12/11 06:12:32;;;;;;;2.13;1.05;;;;;;;7.26;100.00;99337.28;5067476;28;20441;-50
2023/12/11 06:14:59;;;;;;;4.47;1.05;;;;;;;7.24;100.00;99338.78;5061658;28;20056;-47
2023/12/11 06:17:27;;;;;;;4.75;0.70;;;;;;;7.18;100.00;99335.50;5061535;28;20060;-48
2023/12/11 06:19:55;;;;;;;4.82;1.20;;;;;;;7.14;100.00;99350.34;5060825;28;20812;-47
2023/12/11 06:22:22;;;;;;;1.95;0.70;;;;;;;7.09;100.00;99342.38;5068885;28;20544;-52
2023/12/11 06:24:50;;;;;;;4.28;0.65;;;;;;;7.05;100.00;99363.47;5057935;28;20049;-51
2023/12/11 06:27:17;;;;;;;8.27;2.03;;;;;;;7.01;100.00;99368.91;5060728;28;20048;-47
2023/12/11 06:29:44;;;;;;;4.72;0.50;;;;;;;6.98;100.00;99366.06;5061727;28;20060;-50
2023/12/11 06:32:12;;;;;;;2.47;0.68;;;;;;;6.96;100.00;99371.94;5055817;28;20041;-49
2023/12/11 06:34:39;;;;;;;8.52;0.77;;;;;;;6.96;100.00;99376.63;5056363;28;20067;-50
2023/12/11 06:37:07;;;;;;;2.88;0.65;;;;;;;6.96;100.00;99377.44;5052600;28;20048;-51
2023/12/11 06:39:35;;;;;;;0.70;0.35;;;;;;;6.95;100.00;99380.53;5054313;28;20040;-50
2023/12/11 06:42:03;;;;;;;1.88;0.75;;;;;;;6.91;100.00;99376.91;5054630;28;20121;-50
2023/12/11 06:44:30;;;;;;;1.20;0.80;;;;;;;6.87;100.00;99389.75;5066654;28;20045;-50
2023/12/11 06:46:57;;;;;;;2.65;0.95;;;;;;;6.83;100.00;99399.88;5049971;28;20406;-52
2023/12/11 06:49:25;;;;;;;4.03;0.75;;;;;;;6.80;100.00;99397.81;5048779;28;20075;-48
2023/12/11 06:51:55;;;;;;;2.55;0.77;;;;;;;6.80;100.00;99411.56;5063061;28;20075;-47
2023/12/11 06:54:22;;;;;;;4.28;0.60;;;;;;;6.80;100.00;99414.31;5059949;28;20083;-48
2023/12/11 06:56:51;;;;;;;4.13;1.27;;;;;;;6.83;100.00;99410.88;5050112;28;20057;-50
2023/12/11 06:59:18;;;;;;;4.18;0.70;;;;;;;6.81;100.00;99421.41;5051198;28;20049;-48
2023/12/11 07:01:45;;;;;;;5.82;0.77;;;;;;;6.80;100.00;99417.06;5054418;28;20426;-47
2023/12/11 07:04:13;;;;;;;1.58;0.40;;;;;;;6.79;100.00;99410.75;5051084;28;20386;-51
2023/12/11 07:06:41;;;;;;;5.70;1.17;;;;;;;6.78;100.00;99431.16;5068758;28;20059;-51
2023/12/11 07:09:10;;;;;;;4.32;0.95;;;;;;;6.77;100.00;99424.06;5048978;28;20136;-49
2023/12/11 07:11:37;;;;;;;7.78;0.80;;;;;;;6.78;100.00;99430.38;5052649;28;20048;-49
2023/12/11 07:14:05;;;;;;;2.45;0.60;;;;;;;6.78;100.00;99424.88;5027679;28;20063;-51
2023/12/11 07:16:34;;;;;;;3.47;0.90;;;;;;;6.77;100.00;99428.78;5064222;28;20052;-53
2023/12/11 07:19:04;;;;;;;6.90;0.95;;;;;;;6.72;100.00;99433.34;5066370;28;20406;-51
2023/12/11 07:21:31;;;;;;;8.35;0.80;;;;;;;6.69;100.00;99436.03;5055009;28;20059;-51
2023/12/11 07:23:59;;;;;;;5.25;0.90;;;;;;;6.66;100.00;99433.97;5049013;28;20045;-49
2023/12/11 07:26:26;;;;;;;2.85;0.90;;;;;;;6.64;100.00;99433.53;5050854;28;20044;-54
2023/12/11 07:28:54;;;;;;;5.70;0.93;;;;;;;6.62;100.00;99439.38;5047705;28;20041;-50
2023/12/11 07:31:21;;;;;;;3.90;1.90;;;;;;;6.60;100.00;99441.69;5047299;28;20399;-50
2023/12/11 07:33:48;;;;;;;3.95;0.80;;;;;;;6.58;100.00;99449.50;5048309;28;20052;-49
2023/12/11 07:36:17;;;;;;;3.50;0.52;;;;;;;6.56;100.00;99456.50;5046676;28;20048;-52
2023/12/11 07:38:44;;;;;;;4.63;0.80;;;;;;;6.53;100.00;99452.50;5047822;28;20530;-48
2023/12/11 07:41:11;;;;;;;2.90;0.90;;;;;;;6.51;100.00;99454.75;5047764;28;20048;-50
2023/12/11 07:43:39;;;;;;;4.57;0.95;;;;;;;6.49;100.00;99451.56;5030271;28;20049;-49
2023/12/11 07:46:06;;;;;;;6.45;0.85;;;;;;;6.48;100.00;99461.00;5048158;28;20057;-48
2023/12/11 07:48:34;;;;;;;4.00;0.80;;;;;;;6.46;100.00;99457.75;5047487;28;20111;-52
2023/12/11 07:51:01;;;;;;;4.85;1.20;;;;;;;6.44;100.00;99479.31;5048194;28;20056;-50
2023/12/11 07:53:29;;;;;;;2.30;0.70;;;;;;;6.43;100.00;99464.00;5050583;28;20431;-47
2023/12/11 07:55:56;;;;;;;7.50;1.20;;;;;;;6.39;100.00;99474.06;5059586;28;20498;-48
2023/12/11 07:58:23;;;;;;;12.65;1.00;;;;;;;6.38;100.00;99477.94;5056445;28;20056;-50
2023/12/11 08:00:51;;;;;;;4.93;1.85;;;;;;;6.38;100.00;99468.94;5055355;28;20041;-47
2023/12/11 08:03:18;;;;;;;5.35;0.95;;;;;;;6.34;100.00;99471.56;5033849;28;20037;-48
2023/12/11 08:05:46;;;;;;;7.07;1.38;;;;;;;6.33;100.00;99469.94;5059882;28;20044;-48
2023/12/11 08:08:13;;;;;;;6.15;0.90;;;;;;;6.30;100.00;99478.88;5072650;28;20045;-48
2023/12/11 08:10:40;;;;;;;7.05;1.30;;;;;;;6.31;100.00;99486.00;5055800;28;20411;-48
2023/12/11 08:13:08;;;;;;;7.38;1.05;;;;;;;6.28;100.00;99472.94;5053135;28;20506;-52
2023/12/11 08:15:37;;;;;;;9.27;1.20;;;;;;;6.26;100.00;99475.25;5054645;28;20044;-50
2023/12/11 08:18:04;;;;;;;7.82;1.25;;;;;;;6.24;100.00;99485.78;5049802;28;20056;-49
2023/12/11 08:20:32;;;;;;;7.57;0.98;;;;;;;6.23;100.00;99484.19;5034678;28;20079;-46
2023/12/11 08:22:59;;;;;;;2.83;1.10;;;;;;;6.21;100.00;99491.97;5050007;28;20041;-49
2023/12/11 08:25:27;;;;;;;3.85;0.80;;;;;;;6.19;100.00;99491.53;5049499;28;20060;-47
2023/12/11 08:27:54;;;;;;;5.63;1.15;;;;;;;6.18;100.00;99500.09;5058293;28;20083;-51
2023/12/11 08:30:22;;;;;;;5.55;1.20;;;;;;;6.17;100.00;99488.31;5049956;28;20048;-47
2023/12/11 08:32:50;;;;;;;5.15;1.30;;;;;;;6.17;100.00;99493.03;5047397;28;20061;-48
2023/12/11 08:35:18;;;;;;;5.03;1.25;;;;;;;6.16;100.00;99494.16;5045296;28;20063;-48
2023/12/11 08:37:45;;;;;;;9.13;1.73;;;;;;;6.16;100.00;99497.72;5045479;28;20045;-48
2023/12/11 08:40:13;;;;;;;9.20;1.45;;;;;;;6.17;100.00;99496.56;5045152;28;20060;-49
2023/12/11 08:42:40;;;;;;;6.97;1.85;;;;;;;6.17;100.00;99502.03;5011017;28;20049;-47
2023/12/11 08:45:09;;;;;;;10.15;2.00;;;;;;;6.17;100.00;99504.00;5028153;28;20049;-47
2023/12/11 08:47:36;;;;;;;8.98;3.60;;;;;;;6.17;100.00;99510.28;5045195;28;20809;-48
2023/12/11 08:50:07;;;;;;;10.00;2.78;;;;;;;6.16;100.00;99500.47;5028446;28;20045;-46
2023/12/11 08:52:36;;;;;;;6.97;3.83;;;;;;;6.16;100.00;99511.44;5047028;28;20510;-50
2023/12/11 08:55:05;;;;;;;10.75;4.00;;;;;;;6.16;100.00;99519.69;5029617;28;20387;-47
2023/12/11 08:57:34;;;;;;;10.70;4.88;;;;;;;6.16;100.00;99519.69;5038465;28;20052;-48
2023/12/11 09:00:05;;;;;;;9.93;4.18;;;;;;;6.17;100.00;99520.50;5056753;28;20060;-46
2023/12/11 09:02:33;;;;;;;9.15;3.65;;;;;;;6.17;100.00;99520.50;5066479;28;20414;-51
2023/12/11 09:05:01;;;;;;;10.98;4.80;;;;;;;6.15;100.00;99520.84;5067249;28;20402;-49
2023/12/11 09:07:29;;;;;;;13.15;6.22;;;;;;;6.16;100.00;99525.19;5069402;28;20516;-48
2023/12/11 09:09:57;;;;;;;16.73;7.18;;;;;;;6.17;100.00;99521.28;5066906;28;20051;-51
2023/12/11 09:12:24;;;;;;;8.25;3.88;;;;;;;6.17;100.00;99524.03;5062777;28;20049;-51
2023/12/11 09:15:00;;;;;;;10.77;2.92;;;;;;;6.18;100.00;99528.38;5050634;28;20060;-47
2023/12/11 09:17:28;;;;;;;15.68;5.47;;;;;;;6.19;100.00;99541.00;5051508;28;20414;-47
2023/12/11 09:19:58;;;;;;;17.15;2.65;;;;;;;6.22;100.00;99534.00;5050351;28;20048;-47
2023/12/11 09:22:25;;;;;;;12.13;2.22;;;;;;;6.23;100.00;99541.91;5050532;28;20044;-47
2023/12/11 09:24:53;;;;;;;6.85;2.25;;;;;;;6.24;100.00;99542.69;5033363;28;20037;-48
2023/12/11 09:27:21;;;;;;;8.70;1.80;;;;;;;6.25;100.00;99555.31;5050278;28;20068;-47
2023/12/11 09:29:49;;;;;;;8.85;1.98;;;;;;;6.27;100.00;99559.31;5050516;28;20049;-46
2023/12/11 09:32:17;;;;;;;6.88;1.40;;;;;;;6.28;100.00;99558.16;5050814;28;20049;-47
2023/12/11 09:34:45;;;;;;;12.10;1.42;;;;;;;6.28;100.00;99560.91;5050610;28;20049;-46
2023/12/11 09:37:13;;;;;;;7.22;1.38;;;;;;;6.31;100.00;99575.88;5049642;28;20460;-46
2023/12/11 09:39:41;;;;;;;3.53;1.40;;;;;;;6.33;100.00;99568.91;5032503;28;20049;-48
2023/12/11 09:42:09;;;;;;;7.63;1.50;;;;;;;6.34;100.00;99567.75;5050160;28;20049;-48
2023/12/11 09:44:37;;;;;;;4.22;1.15;;;;;;;6.36;100.00;99564.66;5032689;28;20414;-47
2023/12/11 09:47:09;;;;;;;8.35;1.40;;;;;;;6.37;100.00;99575.31;5049946;28;20067;-46
2023/12/11 09:49:38;;;;;;;3.17;1.10;;;;;;;6.39;100.00;99584.03;5050361;28;20061;-49
2023/12/11 09:52:06;;;;;;;8.07;1.27;;;;;;;6.41;100.00;99569.91;5050964;28;20056;-49
2023/12/11 09:54:33;;;;;;;9.00;2.08;;;;;;;6.44;100.00;99580.22;5063997;28;20110;-50
2023/12/11 09:57:01;;;;;;;4.07;1.27;;;;;;;6.45;100.00;99585.41;5050719;28;20055;-46
2023/12/11 09:59:30;;;;;;;2.50;1.05;;;;;;;6.49;100.00;99602.78;5061548;28;20049;-50
2023/12/11 10:01:58;;;;;;;3.55;1.00;;;;;;;6.49;100.00;99600.03;5069501;28;20060;-48
2023/12/11 10:04:25;;;;;;;5.30;0.93;;;;;;;6.53;100.00;99605.66;5069252;28;20041;-47
2023/12/11 10:06:53;;;;;;;4.63;0.82;;;;;;;6.55;100.00;99611.59;5081164;28;20044;-46
2023/12/11 10:09:30;;;;;;;9.75;1.08;;;;;;;6.57;100.00;99601.88;5070777;28;20052;-49
2023/12/11 10:12:00;;;;;;;14.93;2.10;;;;;;;6.59;100.00;99605.06;5068287;28;20044;-48
2023/12/11 10:14:30;;;;;;;9.98;1.40;;;;;;;6.62;100.00;99598.88;5068911;28;20452;-48
2023/12/11 10:17:13;;;;;;;7.38;1.42;;;;;;;6.63;100.00;99594.97;5069456;28;20060;-46
2023/12/11 10:19:41;;;;;;;6.95;1.40;;;;;;;6.66;100.00;99599.00;5068827;28;20525;-48
2023/12/11 10:22:25;;;;;;;6.30;1.33;;;;;;;6.68;100.00;99607.69;5068597;28;20383;-49
2023/12/11 10:24:52;;;;;;;7.68;2.38;;;;;;;6.70;100.00;99605.38;5050809;28;20040;-50
2023/12/11 10:27:26;;;;;;;9.48;1.45;;;;;;;6.72;100.00;99603.88;5068930;28;20052;-51
2023/12/11 10:30:07;;;;;;;9.13;1.40;;;;;;;6.74;100.00;99607.13;5069412;28;20055;-48
2023/12/11 10:32:35;;;;;;;7.25;1.25;;;;;;;6.77;100.00;99604.81;5068859;28;20371;-49
2023/12/11 10:35:04;;;;;;;4.88;1.55;;;;;;;6.79;100.00;99608.00;5069985;28;20055;-48
2023/12/11 10:37:34;;;;;;;4.32;1.58;;;;;;;6.80;100.00;99602.19;5069379;28;20061;-50
2023/12/11 10:40:03;;;;;;;8.30;1.35;;;;;;;6.83;100.00;99615.22;5069335;28;20052;-48
2023/12/11 10:42:31;;;;;;;10.70;1.48;;;;;;;6.84;100.00;99614.06;5050725;28;20048;-49
2023/12/11 10:44:59;;;;;;;6.15;1.60;;;;;;;6.86;100.00;99608.25;5069109;28;20413;-47
2023/12/11 10:47:28;;;;;;;11.73;1.95;;;;;;;6.89;100.00;99602.00;5068688;28;20053;-47
2023/12/11 10:50:00;;;;;;;6.70;1.50;;;;;;;6.91;100.00;99595.00;5068341;28;20045;-50
2023/12/11 10:52:28;;;;;;;12.88;1.88;;;;;;;6.94;100.00;99604.53;5051637;28;20063;-48
2023/12/11 10:54:56;;;;;;;8.55;1.80;;;;;;;6.96;100.00;99602.25;5068770;28;20051;-47
2023/12/11 10:57:25;;;;;;;9.75;1.40;;;;;;;6.98;100.00;99594.44;5068421;28;20044;-50
2023/12/11 10:59:55;;;;;;;5.75;1.50;;;;;;;7.02;100.00;99600.81;5051716;28;20389;-49
2023/12/11 11:02:25;;;;;;;8.85;2.00;;;;;;;7.04;100.00;99587.53;5048931;28;20055;-48
2023/12/11 11:04:54;;;;;;;8.65;1.95;;;;;;;7.08;100.00;99599.44;5068843;28;20048;-47
2023/12/11 11:07:27;;;;;;;12.68;2.05;;;;;;;7.11;100.00;99596.00;5085261;28;20043;-51
2023/12/11 11:10:23;;;;;;;12.95;1.75;;;;;;;7.13;100.00;99596.44;5088952;28;20060;-51
2023/12/11 11:13:15;;;;;;;7.72;2.08;;;;;;;7.16;100.00;99601.25;5052259;28;20041;-48
2023/12/11 11:15:49;;;;;;;;;;;;;;;7.17;100.00;99602.84;5049194;28;20418;-50
2023/12/11 11:18:17;;;;;;;15.00;3.55;;;;;;;7.20;100.00;99602.16;5048238;28;19924;-52
2023/12/11 11:21:07;;;;;;;7.93;2.30;;;;;;;7.22;100.00;99591.59;5048084;28;20056;-49
2023/12/11 11:23:42;;;;;;;8.90;2.33;;;;;;;7.24;100.00;99592.84;5065186;28;20064;-49
2023/12/11 11:26:33;;;;;;;10.20;1.90;;;;;;;7.29;100.00;99611.06;5067357;28;20059;-49
2023/12/11 11:29:03;;;;;;;10.02;1.48;;;;;;;7.30;100.00;99607.97;5068691;28;20051;-50
2023/12/11 11:31:47;;;;;;;13.90;3.05;;;;;;;7.33;100.00;99589.94;5068203;28;20049;-49
2023/12/11 11:34:35;;;;;;;9.18;1.95;;;;;;;7.35;100.00;99587.63;5067676;28;20049;-47
2023/12/11 11:37:03;;;;;;;4.63;1.30;;;;;;;7.39;100.00;99588.50;5067524;28;20048;-49
2023/12/11 11:39:59;;;;;;;8.88;1.63;;;;;;;7.42;100.00;99590.56;5068104;28;20052;-48
2023/12/11 11:42:36;;;;;;;7.10;1.13;;;;;;;7.44;100.00;99590.22;5067990;28;20049;-48